sensor_id;sensor_type;location;lat;lon;timestamp;P1;durP1;ratioP1;P2;durP2;ratioP2
6997;SDS011;3539;47.982;12.238;2022-11-06T00:00:31;12.53;;;11.33;;
6997;SDS011;3539;47.982;12.238;2022-11-06T00:02:59;13.23;;;11.83;;
6997;SDS011;3539;47.982;12.238;2022-11-06T00:05:28;13.33;;;12.00;;
6997;SDS011;3539;47.982;12.238;2022-11-06T00:08:12;12.47;;;11.37;;
6997;SDS011;3539;47.982;12.238;2022-11-06T00:10:39;13.17;;;11.87;;
6997;SDS011;3539;47.982;12.238;2022-11-06T00:13:06;12.17;;;10.97;;
6997;SDS011;3539;47.982;12.238;2022-11-06T00:15:33;14.07;;;12.73;;
6997;SDS011;3539;47.982;12.238;2022-11-06T00:17:59;14.13;;;12.73;;
6997;SDS011;3539;47.982;12.238;2022-11-06T00:20:27;15.10;;;13.50;;
6997;SDS011;3539;47.982;12.238;2022-11-06T00:22:54;16.43;;;13.43;;
6997;SDS011;3539;47.982;12.238;2022-11-06T00:25:21;14.77;;;13.23;;
6997;SDS011;3539;47.982;12.238;2022-11-06T00:27:47;17.47;;;15.67;;
6997;SDS011;3539;47.982;12.238;2022-11-06T00:30:14;14.00;;;12.70;;
6997;SDS011;3539;47.982;12.238;2022-11-06T00:32:41;14.00;;;12.60;;
6997;SDS011;3539;47.982;12.238;2022-11-06T00:35:07;12.63;;;11.43;;
6997;SDS011;3539;47.982;12.238;2022-11-06T00:37:36;12.97;;;11.73;;
6997;SDS011;3539;47.982;12.238;2022-11-06T00:40:03;13.53;;;12.13;;
6997;SDS011;3539;47.982;12.238;2022-11-06T00:42:30;15.17;;;13.67;;
6997;SDS011;3539;47.982;12.238;2022-11-06T00:44:57;15.03;;;13.47;;
6997;SDS011;3539;47.982;12.238;2022-11-06T00:47:24;15.00;;;13.50;;
6997;SDS011;3539;47.982;12.238;2022-11-06T00:49:51;15.67;;;14.00;;
6997;SDS011;3539;47.982;12.238;2022-11-06T00:52:17;16.47;;;14.70;;
6997;SDS011;3539;47.982;12.238;2022-11-06T00:54:45;18.20;;;16.27;;
6997;SDS011;3539;47.982;12.238;2022-11-06T00:57:12;17.90;;;15.83;;
6997;SDS011;3539;47.982;12.238;2022-11-06T00:59:39;18.57;;;16.40;;
6997;SDS011;3539;47.982;12.238;2022-11-06T01:02:05;18.73;;;16.73;;
6997;SDS011;3539;47.982;12.238;2022-11-06T01:04:32;16.97;;;15.20;;
6997;SDS011;3539;47.982;12.238;2022-11-06T01:06:59;18.50;;;15.93;;
6997;SDS011;3539;47.982;12.238;2022-11-06T01:09:26;16.73;;;14.47;;
6997;SDS011;3539;47.982;12.238;2022-11-06T01:11:55;15.70;;;14.10;;
6997;SDS011;3539;47.982;12.238;2022-11-06T01:14:23;16.10;;;14.43;;
6997;SDS011;3539;47.982;12.238;2022-11-06T01:16:50;16.50;;;14.73;;
6997;SDS011;3539;47.982;12.238;2022-11-06T01:19:18;16.07;;;14.43;;
6997;SDS011;3539;47.982;12.238;2022-11-06T01:21:51;16.37;;;14.63;;
6997;SDS011;3539;47.982;12.238;2022-11-06T01:24:19;16.67;;;14.93;;
6997;SDS011;3539;47.982;12.238;2022-11-06T01:26:47;13.33;;;11.70;;
6997;SDS011;3539;47.982;12.238;2022-11-06T01:29:15;13.33;;;12.03;;
6997;SDS011;3539;47.982;12.238;2022-11-06T01:31:43;13.13;;;11.93;;
6997;SDS011;3539;47.982;12.238;2022-11-06T01:34:11;13.80;;;12.50;;
6997;SDS011;3539;47.982;12.238;2022-11-06T01:36:38;14.57;;;13.07;;
6997;SDS011;3539;47.982;12.238;2022-11-06T01:39:05;16.67;;;14.98;;
6997;SDS011;3539;47.982;12.238;2022-11-06T01:41:34;14.50;;;13.10;;
6997;SDS011;3539;47.982;12.238;2022-11-06T01:44:02;12.33;;;11.20;;
6997;SDS011;3539;47.982;12.238;2022-11-06T01:46:32;12.77;;;11.60;;
6997;SDS011;3539;47.982;12.238;2022-11-06T01:49:00;14.30;;;12.97;;
6997;SDS011;3539;47.982;12.238;2022-11-06T01:51:31;11.40;;;10.40;;
6997;SDS011;3539;47.982;12.238;2022-11-06T01:54:01;11.93;;;10.87;;
6997;SDS011;3539;47.982;12.238;2022-11-06T01:56:28;13.17;;;10.30;;
6997;SDS011;3539;47.982;12.238;2022-11-06T01:58:55;10.67;;;9.70;;
6997;SDS011;3539;47.982;12.238;2022-11-06T02:01:22;12.03;;;10.83;;
6997;SDS011;3539;47.982;12.238;2022-11-06T02:03:54;13.07;;;11.77;;
6997;SDS011;3539;47.982;12.238;2022-11-06T02:06:23;11.83;;;10.67;;
6997;SDS011;3539;47.982;12.238;2022-11-06T02:08:50;9.80;;;8.97;;
6997;SDS011;3539;47.982;12.238;2022-11-06T02:11:17;10.13;;;9.07;;
6997;SDS011;3539;47.982;12.238;2022-11-06T02:13:47;9.07;;;8.13;;
6997;SDS011;3539;47.982;12.238;2022-11-06T02:16:19;9.87;;;9.03;;
6997;SDS011;3539;47.982;12.238;2022-11-06T02:18:52;8.47;;;7.77;;
6997;SDS011;3539;47.982;12.238;2022-11-06T02:21:35;9.37;;;8.57;;
6997;SDS011;3539;47.982;12.238;2022-11-06T02:24:29;9.73;;;8.90;;
6997;SDS011;3539;47.982;12.238;2022-11-06T02:27:17;10.77;;;9.77;;
6997;SDS011;3539;47.982;12.238;2022-11-06T02:29:46;10.23;;;9.30;;
6997;SDS011;3539;47.982;12.238;2022-11-06T02:32:17;12.67;;;10.90;;
6997;SDS011;3539;47.982;12.238;2022-11-06T02:34:46;11.90;;;10.70;;
6997;SDS011;3539;47.982;12.238;2022-11-06T02:37:13;13.03;;;11.80;;
6997;SDS011;3539;47.982;12.238;2022-11-06T02:39:43;12.27;;;10.97;;
6997;SDS011;3539;47.982;12.238;2022-11-06T02:42:11;13.10;;;11.60;;
6997;SDS011;3539;47.982;12.238;2022-11-06T02:44:41;12.47;;;11.37;;
6997;SDS011;3539;47.982;12.238;2022-11-06T02:47:09;13.03;;;11.83;;
6997;SDS011;3539;47.982;12.238;2022-11-06T02:49:39;15.57;;;14.10;;
6997;SDS011;3539;47.982;12.238;2022-11-06T02:52:07;15.00;;;13.60;;
6997;SDS011;3539;47.982;12.238;2022-11-06T02:54:36;12.10;;;11.00;;
6997;SDS011;3539;47.982;12.238;2022-11-06T02:57:06;11.87;;;10.77;;
6997;SDS011;3539;47.982;12.238;2022-11-06T02:59:37;12.10;;;11.00;;
6997;SDS011;3539;47.982;12.238;2022-11-06T03:02:09;12.07;;;10.97;;
6997;SDS011;3539;47.982;12.238;2022-11-06T03:04:42;11.30;;;10.23;;
6997;SDS011;3539;47.982;12.238;2022-11-06T03:07:13;12.60;;;11.40;;
6997;SDS011;3539;47.982;12.238;2022-11-06T03:09:41;12.23;;;11.03;;
6997;SDS011;3539;47.982;12.238;2022-11-06T03:12:10;10.77;;;9.87;;
6997;SDS011;3539;47.982;12.238;2022-11-06T03:14:46;10.03;;;9.03;;
6997;SDS011;3539;47.982;12.238;2022-11-06T03:17:19;9.53;;;8.73;;
6997;SDS011;3539;47.982;12.238;2022-11-06T03:19:49;9.27;;;8.40;;
6997;SDS011;3539;47.982;12.238;2022-11-06T03:22:18;9.67;;;8.80;;
6997;SDS011;3539;47.982;12.238;2022-11-06T03:24:53;9.73;;;8.83;;
6997;SDS011;3539;47.982;12.238;2022-11-06T03:27:26;10.20;;;9.30;;
6997;SDS011;3539;47.982;12.238;2022-11-06T03:30:00;11.20;;;10.13;;
6997;SDS011;3539;47.982;12.238;2022-11-06T03:32:29;11.17;;;10.17;;
6997;SDS011;3539;47.982;12.238;2022-11-06T03:35:02;10.97;;;9.87;;
6997;SDS011;3539;47.982;12.238;2022-11-06T03:37:32;10.53;;;9.40;;
6997;SDS011;3539;47.982;12.238;2022-11-06T03:40:06;10.13;;;9.17;;
6997;SDS011;3539;47.982;12.238;2022-11-06T03:42:35;9.43;;;8.57;;
6997;SDS011;3539;47.982;12.238;2022-11-06T03:45:05;9.80;;;8.90;;
6997;SDS011;3539;47.982;12.238;2022-11-06T03:47:35;9.30;;;8.50;;
6997;SDS011;3539;47.982;12.238;2022-11-06T03:50:04;8.57;;;7.77;;
6997;SDS011;3539;47.982;12.238;2022-11-06T03:52:33;9.90;;;8.97;;
6997;SDS011;3539;47.982;12.238;2022-11-06T03:55:03;11.00;;;9.27;;
6997;SDS011;3539;47.982;12.238;2022-11-06T03:57:33;9.70;;;8.40;;
6997;SDS011;3539;47.982;12.238;2022-11-06T04:00:06;9.97;;;8.40;;
6997;SDS011;3539;47.982;12.238;2022-11-06T04:02:35;13.23;;;11.80;;
6997;SDS011;3539;47.982;12.238;2022-11-06T04:05:05;14.37;;;10.43;;
6997;SDS011;3539;47.982;12.238;2022-11-06T04:07:35;10.47;;;9.13;;
6997;SDS011;3539;47.982;12.238;2022-11-06T04:10:04;10.23;;;8.73;;
6997;SDS011;3539;47.982;12.238;2022-11-06T04:12:51;9.70;;;8.70;;
6997;SDS011;3539;47.982;12.238;2022-11-06T04:15:38;9.40;;;8.60;;
6997;SDS011;3539;47.982;12.238;2022-11-06T04:18:10;9.83;;;8.93;;
6997;SDS011;3539;47.982;12.238;2022-11-06T04:20:41;8.80;;;7.73;;
6997;SDS011;3539;47.982;12.238;2022-11-06T04:23:33;7.67;;;6.87;;
6997;SDS011;3539;47.982;12.238;2022-11-06T04:26:08;7.03;;;6.33;;
6997;SDS011;3539;47.982;12.238;2022-11-06T04:28:57;7.07;;;6.57;;
6997;SDS011;3539;47.982;12.238;2022-11-06T04:31:30;8.13;;;7.43;;
6997;SDS011;3539;47.982;12.238;2022-11-06T04:34:02;8.37;;;7.67;;
6997;SDS011;3539;47.982;12.238;2022-11-06T04:36:34;8.63;;;7.83;;
6997;SDS011;3539;47.982;12.238;2022-11-06T04:39:08;8.13;;;7.37;;
6997;SDS011;3539;47.982;12.238;2022-11-06T04:41:39;10.10;;;7.57;;
6997;SDS011;3539;47.982;12.238;2022-11-06T04:44:09;10.00;;;8.70;;
6997;SDS011;3539;47.982;12.238;2022-11-06T04:46:42;8.47;;;7.77;;
6997;SDS011;3539;47.982;12.238;2022-11-06T04:49:11;8.90;;;7.83;;
6997;SDS011;3539;47.982;12.238;2022-11-06T04:51:39;6.83;;;6.30;;
6997;SDS011;3539;47.982;12.238;2022-11-06T04:54:08;8.87;;;8.07;;
6997;SDS011;3539;47.982;12.238;2022-11-06T04:56:36;8.67;;;7.87;;
6997;SDS011;3539;47.982;12.238;2022-11-06T04:59:03;9.97;;;7.50;;
6997;SDS011;3539;47.982;12.238;2022-11-06T05:01:29;8.07;;;7.27;;
6997;SDS011;3539;47.982;12.238;2022-11-06T05:03:58;8.47;;;7.60;;
6997;SDS011;3539;47.982;12.238;2022-11-06T05:06:25;8.43;;;7.73;;
6997;SDS011;3539;47.982;12.238;2022-11-06T05:08:51;8.73;;;8.03;;
6997;SDS011;3539;47.982;12.238;2022-11-06T05:11:21;7.80;;;7.10;;
6997;SDS011;3539;47.982;12.238;2022-11-06T05:13:51;7.57;;;6.87;;
6997;SDS011;3539;47.982;12.238;2022-11-06T05:16:18;16.70;;;11.00;;
6997;SDS011;3539;47.982;12.238;2022-11-06T05:18:45;8.83;;;8.13;;
6997;SDS011;3539;47.982;12.238;2022-11-06T05:21:13;8.60;;;7.80;;
6997;SDS011;3539;47.982;12.238;2022-11-06T05:23:57;9.53;;;7.53;;
6997;SDS011;3539;47.982;12.238;2022-11-06T05:26:24;10.33;;;8.27;;
6997;SDS011;3539;47.982;12.238;2022-11-06T05:28:50;12.03;;;8.07;;
6997;SDS011;3539;47.982;12.238;2022-11-06T05:31:17;8.73;;;7.93;;
6997;SDS011;3539;47.982;12.238;2022-11-06T05:33:44;9.23;;;8.43;;
6997;SDS011;3539;47.982;12.238;2022-11-06T05:36:10;8.97;;;7.93;;
6997;SDS011;3539;47.982;12.238;2022-11-06T05:38:38;8.13;;;5.83;;
6997;SDS011;3539;47.982;12.238;2022-11-06T05:41:06;8.10;;;7.30;;
6997;SDS011;3539;47.982;12.238;2022-11-06T05:43:32;8.00;;;7.20;;
6997;SDS011;3539;47.982;12.238;2022-11-06T05:46:00;8.50;;;7.37;;
6997;SDS011;3539;47.982;12.238;2022-11-06T05:48:26;12.07;;;8.10;;
6997;SDS011;3539;47.982;12.238;2022-11-06T05:50:59;8.70;;;8.00;;
6997;SDS011;3539;47.982;12.238;2022-11-06T05:53:28;8.03;;;7.23;;
6997;SDS011;3539;47.982;12.238;2022-11-06T05:55:56;9.83;;;8.03;;
6997;SDS011;3539;47.982;12.238;2022-11-06T05:58:23;10.90;;;8.83;;
6997;SDS011;3539;47.982;12.238;2022-11-06T06:00:50;11.50;;;10.30;;
6997;SDS011;3539;47.982;12.238;2022-11-06T06:03:16;8.33;;;7.53;;
6997;SDS011;3539;47.982;12.238;2022-11-06T06:05:45;10.23;;;9.13;;
6997;SDS011;3539;47.982;12.238;2022-11-06T06:08:12;12.30;;;11.00;;
6997;SDS011;3539;47.982;12.238;2022-11-06T06:10:39;11.03;;;10.03;;
6997;SDS011;3539;47.982;12.238;2022-11-06T06:13:08;7.67;;;6.97;;
6997;SDS011;3539;47.982;12.238;2022-11-06T06:15:36;14.07;;;12.60;;
6997;SDS011;3539;47.982;12.238;2022-11-06T06:18:03;13.20;;;11.90;;
6997;SDS011;3539;47.982;12.238;2022-11-06T06:20:30;11.37;;;10.37;;
6997;SDS011;3539;47.982;12.238;2022-11-06T06:22:57;10.57;;;9.57;;
6997;SDS011;3539;47.982;12.238;2022-11-06T06:25:25;12.03;;;10.93;;
6997;SDS011;3539;47.982;12.238;2022-11-06T06:27:52;12.03;;;10.83;;
6997;SDS011;3539;47.982;12.238;2022-11-06T06:30:21;11.97;;;10.87;;
6997;SDS011;3539;47.982;12.238;2022-11-06T06:32:48;13.57;;;12.17;;
6997;SDS011;3539;47.982;12.238;2022-11-06T06:35:15;35.60;;;28.23;;
6997;SDS011;3539;47.982;12.238;2022-11-06T06:37:42;26.60;;;21.57;;
6997;SDS011;3539;47.982;12.238;2022-11-06T06:40:09;11.93;;;10.77;;
6997;SDS011;3539;47.982;12.238;2022-11-06T06:42:36;16.70;;;14.23;;
6997;SDS011;3539;47.982;12.238;2022-11-06T06:45:03;15.03;;;13.43;;
6997;SDS011;3539;47.982;12.238;2022-11-06T06:47:32;16.53;;;14.57;;
6997;SDS011;3539;47.982;12.238;2022-11-06T06:49:58;26.07;;;20.50;;
6997;SDS011;3539;47.982;12.238;2022-11-06T06:52:25;22.90;;;19.27;;
6997;SDS011;3539;47.982;12.238;2022-11-06T06:54:52;15.67;;;13.67;;
6997;SDS011;3539;47.982;12.238;2022-11-06T06:57:19;15.33;;;13.83;;
6997;SDS011;3539;47.982;12.238;2022-11-06T06:59:45;14.27;;;12.87;;
6997;SDS011;3539;47.982;12.238;2022-11-06T07:02:12;13.90;;;12.53;;
6997;SDS011;3539;47.982;12.238;2022-11-06T07:04:40;12.77;;;11.47;;
6997;SDS011;3539;47.982;12.238;2022-11-06T07:07:07;10.77;;;9.87;;
6997;SDS011;3539;47.982;12.238;2022-11-06T07:09:33;10.87;;;9.97;;
6997;SDS011;3539;47.982;12.238;2022-11-06T07:12:00;10.13;;;9.17;;
6997;SDS011;3539;47.982;12.238;2022-11-06T07:14:27;12.38;;;9.68;;
6997;SDS011;3539;47.982;12.238;2022-11-06T07:16:53;10.40;;;9.40;;
6997;SDS011;3539;47.982;12.238;2022-11-06T07:19:20;9.80;;;8.90;;
6997;SDS011;3539;47.982;12.238;2022-11-06T07:21:50;10.07;;;9.17;;
6997;SDS011;3539;47.982;12.238;2022-11-06T07:24:17;11.57;;;10.47;;
6997;SDS011;3539;47.982;12.238;2022-11-06T07:26:45;10.53;;;9.53;;
6997;SDS011;3539;47.982;12.238;2022-11-06T07:29:12;9.63;;;8.73;;
6997;SDS011;3539;47.982;12.238;2022-11-06T07:31:39;13.37;;;11.77;;
6997;SDS011;3539;47.982;12.238;2022-11-06T07:34:05;13.03;;;10.57;;
6997;SDS011;3539;47.982;12.238;2022-11-06T07:36:33;10.13;;;9.17;;
6997;SDS011;3539;47.982;12.238;2022-11-06T07:39:01;15.83;;;8.50;;
6997;SDS011;3539;47.982;12.238;2022-11-06T07:41:28;8.57;;;7.70;;
6997;SDS011;3539;47.982;12.238;2022-11-06T07:43:55;10.43;;;9.40;;
6997;SDS011;3539;47.982;12.238;2022-11-06T07:46:22;10.97;;;9.97;;
6997;SDS011;3539;47.982;12.238;2022-11-06T07:48:48;10.20;;;9.30;;
6997;SDS011;3539;47.982;12.238;2022-11-06T07:51:15;11.23;;;10.23;;
6997;SDS011;3539;47.982;12.238;2022-11-06T07:53:42;9.90;;;9.00;;
6997;SDS011;3539;47.982;12.238;2022-11-06T07:56:10;9.47;;;8.53;;
6997;SDS011;3539;47.982;12.238;2022-11-06T07:58:37;10.10;;;8.30;;
6997;SDS011;3539;47.982;12.238;2022-11-06T08:01:03;11.30;;;8.03;;
6997;SDS011;3539;47.982;12.238;2022-11-06T08:03:30;9.20;;;8.37;;
6997;SDS011;3539;47.982;12.238;2022-11-06T08:05:58;10.37;;;9.27;;
6997;SDS011;3539;47.982;12.238;2022-11-06T08:08:28;11.47;;;10.13;;
6997;SDS011;3539;47.982;12.238;2022-11-06T08:10:59;10.30;;;9.20;;
6997;SDS011;3539;47.982;12.238;2022-11-06T08:13:28;11.10;;;10.00;;
6997;SDS011;3539;47.982;12.238;2022-11-06T08:15:55;11.10;;;9.93;;
6997;SDS011;3539;47.982;12.238;2022-11-06T08:18:21;12.77;;;10.70;;
6997;SDS011;3539;47.982;12.238;2022-11-06T08:20:51;11.60;;;10.47;;
6997;SDS011;3539;47.982;12.238;2022-11-06T08:23:18;12.07;;;10.87;;
6997;SDS011;3539;47.982;12.238;2022-11-06T08:25:45;14.48;;;12.40;;
6997;SDS011;3539;47.982;12.238;2022-11-06T08:28:11;14.13;;;11.93;;
6997;SDS011;3539;47.982;12.238;2022-11-06T08:30:39;13.57;;;11.53;;
6997;SDS011;3539;47.982;12.238;2022-11-06T08:33:06;12.17;;;10.80;;
6997;SDS011;3539;47.982;12.238;2022-11-06T08:35:33;13.93;;;11.67;;
6997;SDS011;3539;47.982;12.238;2022-11-06T08:38:00;13.57;;;11.93;;
6997;SDS011;3539;47.982;12.238;2022-11-06T08:40:27;13.40;;;11.57;;
6997;SDS011;3539;47.982;12.238;2022-11-06T08:42:57;13.13;;;11.10;;
6997;SDS011;3539;47.982;12.238;2022-11-06T08:45:24;12.13;;;10.90;;
6997;SDS011;3539;47.982;12.238;2022-11-06T08:47:52;10.73;;;9.37;;
6997;SDS011;3539;47.982;12.238;2022-11-06T08:50:19;11.57;;;10.37;;
6997;SDS011;3539;47.982;12.238;2022-11-06T08:52:46;12.13;;;9.93;;
6997;SDS011;3539;47.982;12.238;2022-11-06T08:55:12;9.83;;;8.60;;
6997;SDS011;3539;47.982;12.238;2022-11-06T08:57:39;8.27;;;7.47;;
6997;SDS011;3539;47.982;12.238;2022-11-06T09:00:06;7.47;;;6.70;;
6997;SDS011;3539;47.982;12.238;2022-11-06T09:02:33;7.53;;;6.83;;
6997;SDS011;3539;47.982;12.238;2022-11-06T09:05:02;8.03;;;6.70;;
6997;SDS011;3539;47.982;12.238;2022-11-06T09:07:29;7.73;;;5.90;;
6997;SDS011;3539;47.982;12.238;2022-11-06T09:09:55;6.57;;;5.97;;
6997;SDS011;3539;47.982;12.238;2022-11-06T09:12:22;8.70;;;7.20;;
6997;SDS011;3539;47.982;12.238;2022-11-06T09:14:49;9.10;;;7.37;;
6997;SDS011;3539;47.982;12.238;2022-11-06T09:17:16;15.50;;;8.90;;
6997;SDS011;3539;47.982;12.238;2022-11-06T09:19:47;7.07;;;5.20;;
6997;SDS011;3539;47.982;12.238;2022-11-06T09:22:15;4.60;;;4.20;;
6997;SDS011;3539;47.982;12.238;2022-11-06T09:24:42;4.70;;;4.20;;
6997;SDS011;3539;47.982;12.238;2022-11-06T09:27:08;5.57;;;4.17;;
6997;SDS011;3539;47.982;12.238;2022-11-06T09:29:35;5.00;;;4.50;;
6997;SDS011;3539;47.982;12.238;2022-11-06T09:32:04;4.10;;;3.70;;
6997;SDS011;3539;47.982;12.238;2022-11-06T09:34:31;4.53;;;4.00;;
6997;SDS011;3539;47.982;12.238;2022-11-06T09:37:00;3.70;;;3.40;;
6997;SDS011;3539;47.982;12.238;2022-11-06T09:39:28;4.60;;;3.73;;
6997;SDS011;3539;47.982;12.238;2022-11-06T09:41:56;3.70;;;3.40;;
6997;SDS011;3539;47.982;12.238;2022-11-06T09:44:28;3.77;;;3.37;;
6997;SDS011;3539;47.982;12.238;2022-11-06T09:47:03;4.03;;;3.63;;
6997;SDS011;3539;47.982;12.238;2022-11-06T09:49:32;4.03;;;3.63;;
6997;SDS011;3539;47.982;12.238;2022-11-06T09:52:01;4.03;;;3.27;;
6997;SDS011;3539;47.982;12.238;2022-11-06T09:54:32;3.33;;;3.03;;
6997;SDS011;3539;47.982;12.238;2022-11-06T09:57:02;3.33;;;3.03;;
6997;SDS011;3539;47.982;12.238;2022-11-06T09:59:30;3.40;;;3.10;;
6997;SDS011;3539;47.982;12.238;2022-11-06T10:02:00;2.97;;;2.77;;
6997;SDS011;3539;47.982;12.238;2022-11-06T10:04:30;3.27;;;2.97;;
6997;SDS011;3539;47.982;12.238;2022-11-06T10:07:03;3.30;;;2.83;;
6997;SDS011;3539;47.982;12.238;2022-11-06T10:09:31;3.20;;;2.90;;
6997;SDS011;3539;47.982;12.238;2022-11-06T10:12:02;3.10;;;2.77;;
6997;SDS011;3539;47.982;12.238;2022-11-06T10:14:36;3.10;;;2.87;;
6997;SDS011;3539;47.982;12.238;2022-11-06T10:17:16;3.20;;;2.90;;
6997;SDS011;3539;47.982;12.238;2022-11-06T10:19:50;4.00;;;3.10;;
6997;SDS011;3539;47.982;12.238;2022-11-06T10:22:22;3.33;;;3.00;;
6997;SDS011;3539;47.982;12.238;2022-11-06T10:24:54;3.40;;;3.10;;
6997;SDS011;3539;47.982;12.238;2022-11-06T10:27:24;3.00;;;2.80;;
6997;SDS011;3539;47.982;12.238;2022-11-06T10:32:48;2.60;;;2.40;;
6997;SDS011;3539;47.982;12.238;2022-11-06T10:35:24;2.73;;;2.47;;
6997;SDS011;3539;47.982;12.238;2022-11-06T10:37:54;3.00;;;2.20;;
6997;SDS011;3539;47.982;12.238;2022-11-06T10:40:25;3.00;;;2.23;;
6997;SDS011;3539;47.982;12.238;2022-11-06T10:42:58;2.30;;;2.10;;
6997;SDS011;3539;47.982;12.238;2022-11-06T10:45:30;2.77;;;2.43;;
6997;SDS011;3539;47.982;12.238;2022-11-06T10:47:58;2.20;;;2.00;;
6997;SDS011;3539;47.982;12.238;2022-11-06T10:50:33;1.80;;;1.70;;
6997;SDS011;3539;47.982;12.238;2022-11-06T10:53:07;2.13;;;1.93;;
6997;SDS011;3539;47.982;12.238;2022-11-06T10:55:46;1.73;;;1.60;;
6997;SDS011;3539;47.982;12.238;2022-11-06T10:58:37;2.37;;;2.17;;
6997;SDS011;3539;47.982;12.238;2022-11-06T11:01:04;2.50;;;2.10;;
6997;SDS011;3539;47.982;12.238;2022-11-06T11:03:33;2.10;;;1.90;;
6997;SDS011;3539;47.982;12.238;2022-11-06T11:06:01;2.20;;;2.00;;
6997;SDS011;3539;47.982;12.238;2022-11-06T11:08:32;2.20;;;2.00;;
6997;SDS011;3539;47.982;12.238;2022-11-06T11:11:14;2.30;;;2.07;;
6997;SDS011;3539;47.982;12.238;2022-11-06T11:13:43;2.30;;;2.10;;
6997;SDS011;3539;47.982;12.238;2022-11-06T11:16:12;2.27;;;2.07;;
6997;SDS011;3539;47.982;12.238;2022-11-06T11:18:40;2.10;;;1.90;;
6997;SDS011;3539;47.982;12.238;2022-11-06T11:21:12;2.20;;;2.00;;
6997;SDS011;3539;47.982;12.238;2022-11-06T11:26:54;2.33;;;2.13;;
6997;SDS011;3539;47.982;12.238;2022-11-06T11:29:57;1.93;;;1.83;;
6997;SDS011;3539;47.982;12.238;2022-11-06T11:32:24;2.37;;;2.17;;
6997;SDS011;3539;47.982;12.238;2022-11-06T11:34:54;2.00;;;1.90;;
6997;SDS011;3539;47.982;12.238;2022-11-06T11:37:22;2.33;;;2.13;;
6997;SDS011;3539;47.982;12.238;2022-11-06T11:39:50;1.90;;;1.70;;
6997;SDS011;3539;47.982;12.238;2022-11-06T11:42:26;1.90;;;1.80;;
6997;SDS011;3539;47.982;12.238;2022-11-06T11:47:44;2.17;;;1.90;;
6997;SDS011;3539;47.982;12.238;2022-11-06T11:50:27;1.97;;;1.83;;
6997;SDS011;3539;47.982;12.238;2022-11-06T11:52:59;2.50;;;2.07;;
6997;SDS011;3539;47.982;12.238;2022-11-06T11:55:30;2.20;;;2.00;;
6997;SDS011;3539;47.982;12.238;2022-11-06T11:58:05;4.47;;;2.90;;
6997;SDS011;3539;47.982;12.238;2022-11-06T12:00:47;4.40;;;2.97;;
6997;SDS011;3539;47.982;12.238;2022-11-06T12:03:17;4.67;;;3.07;;
6997;SDS011;3539;47.982;12.238;2022-11-06T12:05:46;5.63;;;3.40;;
6997;SDS011;3539;47.982;12.238;2022-11-06T12:08:21;2.20;;;2.00;;
6997;SDS011;3539;47.982;12.238;2022-11-06T12:11:32;3.87;;;2.03;;
6997;SDS011;3539;47.982;12.238;2022-11-06T12:14:34;1.83;;;1.73;;
6997;SDS011;3539;47.982;12.238;2022-11-06T12:23:28;1.90;;;1.80;;
6997;SDS011;3539;47.982;12.238;2022-11-06T12:26:52;2.10;;;1.90;;
6997;SDS011;3539;47.982;12.238;2022-11-06T12:32:50;6.67;;;4.40;;
6997;SDS011;3539;47.982;12.238;2022-11-06T12:35:56;4.83;;;3.20;;
6997;SDS011;3539;47.982;12.238;2022-11-06T12:38:43;2.50;;;1.90;;
6997;SDS011;3539;47.982;12.238;2022-11-06T12:50:50;1.30;;;1.20;;
6997;SDS011;3539;47.982;12.238;2022-11-06T12:53:24;2.00;;;1.80;;
6997;SDS011;3539;47.982;12.238;2022-11-06T12:56:01;2.97;;;2.20;;
6997;SDS011;3539;47.982;12.238;2022-11-06T12:58:53;2.00;;;1.60;;
6997;SDS011;3539;47.982;12.238;2022-11-06T13:01:32;3.73;;;2.17;;
6997;SDS011;3539;47.982;12.238;2022-11-06T13:04:08;2.30;;;2.00;;
6997;SDS011;3539;47.982;12.238;2022-11-06T13:07:00;1.90;;;1.80;;
6997;SDS011;3539;47.982;12.238;2022-11-06T13:09:43;24.20;;;20.40;;
6997;SDS011;3539;47.982;12.238;2022-11-06T13:12:15;3.33;;;2.37;;
6997;SDS011;3539;47.982;12.238;2022-11-06T13:14:47;2.07;;;1.93;;
6997;SDS011;3539;47.982;12.238;2022-11-06T13:17:26;3.23;;;2.93;;
6997;SDS011;3539;47.982;12.238;2022-11-06T13:19:56;2.10;;;1.90;;
6997;SDS011;3539;47.982;12.238;2022-11-06T13:22:29;1.80;;;1.70;;
6997;SDS011;3539;47.982;12.238;2022-11-06T13:25:01;2.70;;;2.20;;
6997;SDS011;3539;47.982;12.238;2022-11-06T13:27:37;2.73;;;2.10;;
6997;SDS011;3539;47.982;12.238;2022-11-06T13:30:10;2.70;;;2.50;;
6997;SDS011;3539;47.982;12.238;2022-11-06T13:32:40;2.30;;;2.10;;
6997;SDS011;3539;47.982;12.238;2022-11-06T13:35:12;2.10;;;1.90;;
6997;SDS011;3539;47.982;12.238;2022-11-06T13:37:42;2.40;;;2.20;;
6997;SDS011;3539;47.982;12.238;2022-11-06T13:40:19;2.27;;;2.07;;
6997;SDS011;3539;47.982;12.238;2022-11-06T13:42:49;2.23;;;2.03;;
6997;SDS011;3539;47.982;12.238;2022-11-06T13:45:18;2.40;;;2.20;;
6997;SDS011;3539;47.982;12.238;2022-11-06T13:47:56;2.17;;;1.97;;
6997;SDS011;3539;47.982;12.238;2022-11-06T13:50:29;2.13;;;1.93;;
6997;SDS011;3539;47.982;12.238;2022-11-06T13:53:00;1.77;;;1.67;;
6997;SDS011;3539;47.982;12.238;2022-11-06T13:55:32;3.10;;;1.90;;
6997;SDS011;3539;47.982;12.238;2022-11-06T13:58:20;2.60;;;2.40;;
6997;SDS011;3539;47.982;12.238;2022-11-06T14:00:56;2.90;;;2.60;;
6997;SDS011;3539;47.982;12.238;2022-11-06T14:03:32;2.70;;;2.50;;
6997;SDS011;3539;47.982;12.238;2022-11-06T14:06:13;2.27;;;2.07;;
6997;SDS011;3539;47.982;12.238;2022-11-06T14:08:43;2.70;;;2.23;;
6997;SDS011;3539;47.982;12.238;2022-11-06T14:11:12;3.13;;;2.60;;
6997;SDS011;3539;47.982;12.238;2022-11-06T14:13:54;3.30;;;3.00;;
6997;SDS011;3539;47.982;12.238;2022-11-06T14:16:23;3.13;;;2.83;;
6997;SDS011;3539;47.982;12.238;2022-11-06T14:18:57;4.43;;;4.03;;
6997;SDS011;3539;47.982;12.238;2022-11-06T14:24:28;5.80;;;5.20;;
6997;SDS011;3539;47.982;12.238;2022-11-06T14:26:57;7.07;;;6.37;;
6997;SDS011;3539;47.982;12.238;2022-11-06T14:32:32;2.77;;;2.57;;
6997;SDS011;3539;47.982;12.238;2022-11-06T14:38:29;2.73;;;2.53;;
6997;SDS011;3539;47.982;12.238;2022-11-06T14:41:01;3.10;;;2.80;;
6997;SDS011;3539;47.982;12.238;2022-11-06T14:44:20;3.10;;;2.43;;
6997;SDS011;3539;47.982;12.238;2022-11-06T14:46:59;4.50;;;4.10;;
6997;SDS011;3539;47.982;12.238;2022-11-06T14:49:37;4.70;;;4.27;;
6997;SDS011;3539;47.982;12.238;2022-11-06T14:52:06;3.03;;;2.77;;
6997;SDS011;3539;47.982;12.238;2022-11-06T14:54:36;3.60;;;3.30;;
6997;SDS011;3539;47.982;12.238;2022-11-06T14:57:06;4.80;;;3.80;;
6997;SDS011;3539;47.982;12.238;2022-11-06T14:59:34;7.90;;;6.87;;
6997;SDS011;3539;47.982;12.238;2022-11-06T15:02:09;7.10;;;5.07;;
6997;SDS011;3539;47.982;12.238;2022-11-06T15:04:41;4.70;;;3.77;;
6997;SDS011;3539;47.982;12.238;2022-11-06T15:07:24;7.43;;;5.27;;
6997;SDS011;3539;47.982;12.238;2022-11-06T15:09:53;6.27;;;5.37;;
6997;SDS011;3539;47.982;12.238;2022-11-06T15:12:21;7.30;;;6.33;;
6997;SDS011;3539;47.982;12.238;2022-11-06T15:15:28;5.60;;;5.10;;
6997;SDS011;3539;47.982;12.238;2022-11-06T15:17:55;5.77;;;4.87;;
6997;SDS011;3539;47.982;12.238;2022-11-06T15:20:26;6.43;;;5.40;;
6997;SDS011;3539;47.982;12.238;2022-11-06T15:22:57;9.33;;;6.70;;
6997;SDS011;3539;47.982;12.238;2022-11-06T15:25:27;8.07;;;6.73;;
6997;SDS011;3539;47.982;12.238;2022-11-06T15:27:55;8.37;;;6.03;;
6997;SDS011;3539;47.982;12.238;2022-11-06T15:30:29;6.97;;;6.13;;
6997;SDS011;3539;47.982;12.238;2022-11-06T15:32:57;6.83;;;6.13;;
6997;SDS011;3539;47.982;12.238;2022-11-06T15:35:28;7.13;;;5.57;;
6997;SDS011;3539;47.982;12.238;2022-11-06T15:38:02;6.23;;;5.60;;
6997;SDS011;3539;47.982;12.238;2022-11-06T15:40:31;6.20;;;5.57;;
6997;SDS011;3539;47.982;12.238;2022-11-06T15:43:00;5.63;;;5.03;;
6997;SDS011;3539;47.982;12.238;2022-11-06T15:45:32;5.63;;;5.03;;
6997;SDS011;3539;47.982;12.238;2022-11-06T15:47:59;5.03;;;4.57;;
6997;SDS011;3539;47.982;12.238;2022-11-06T15:50:28;4.73;;;4.33;;